Terminal Aerodrome Forecast
Issued by NWS

Home | Current Version | Previous Version | Text Only | Print | Product List | Glossary Off
Versions: 1 2 3 4 5 6 7 8 9 10 11 12 13 14 15 16 17

292
FTUS43 KBIS 050534
TAFDIK
TAF
KDIK 050534Z 0506/0606 26005KT P6SM VCSH SCT015 BKN035
     FM050800 28007KT 3SM -SN BR OVC015
     FM051000 31009KT 2SM -SN BR OVC008
     FM051200 31010KT P6SM OVC010
     FM051400 30010KT P6SM BKN040
     FM060000 26010KT P6SM FEW250=

USA.gov is the U.S. government's official web portal to all federal, state and local government web resources and services.